createdAt,value
2023-06-05T00:00:16.025Z,98389.66
2023-06-05T00:02:42.999Z,98387.94
2023-06-05T00:05:10.976Z,98386.06
2023-06-05T00:07:40.683Z,98387.34
2023-06-05T00:10:09.835Z,98388.09
2023-06-05T00:12:37.260Z,98384.72
2023-06-05T00:15:06.165Z,98385.69
2023-06-05T00:17:33.293Z,98382.22
2023-06-05T00:20:00.236Z,98382.66
2023-06-05T00:22:29.356Z,98383.94
2023-06-05T00:24:56.618Z,98380.00
2023-06-05T00:27:23.551Z,98391.00
2023-06-05T00:29:54.930Z,98387.78
2023-06-05T00:32:21.798Z,98386.41
2023-06-05T00:34:51.363Z,98387.94
2023-06-05T00:37:18.295Z,98393.78
2023-06-05T00:39:45.157Z,98392.97
2023-06-05T00:42:12.180Z,98393.53
2023-06-05T00:44:39.119Z,98395.94
2023-06-05T00:47:06.415Z,98387.22
2023-06-05T00:49:38.289Z,98375.16
2023-06-05T00:52:05.503Z,98377.81
2023-06-05T00:54:32.512Z,98380.84
2023-06-05T00:56:59.462Z,98393.47
2023-06-05T00:59:27.766Z,98388.06
2023-06-05T01:01:55.541Z,98385.00
2023-06-05T01:04:24.840Z,98387.53
2023-06-05T01:06:52.893Z,98377.41
2023-06-05T01:09:20.112Z,98384.06
2023-06-05T01:11:57.408Z,98378.94
2023-06-05T01:14:25.633Z,98371.34
2023-06-05T01:16:57.784Z,98376.09
2023-06-05T01:19:33.032Z,98374.62
2023-06-05T01:22:00.726Z,98367.28
2023-06-05T01:24:29.286Z,98367.59
2023-06-05T01:26:56.307Z,98371.78
2023-06-05T01:29:29.693Z,98360.72
2023-06-05T01:32:02.593Z,98362.50
2023-06-05T01:34:29.883Z,98358.28
2023-06-05T01:36:57.503Z,98353.59
2023-06-05T01:39:24.998Z,98357.81
2023-06-05T01:41:53.226Z,98356.09
2023-06-05T01:47:20.199Z,98356.31
2023-06-05T01:58:39.910Z,98332.53
2023-06-05T02:01:07.156Z,98325.75
2023-06-05T02:03:34.482Z,98315.28
2023-06-05T02:06:01.774Z,98319.97
2023-06-05T02:08:36.772Z,98324.41
2023-06-05T02:11:04.206Z,98312.28
2023-06-05T02:13:31.256Z,98333.78
2023-06-05T02:15:58.679Z,98320.28
2023-06-05T02:18:26.990Z,98320.22
2023-06-05T02:20:57.599Z,98311.75
2023-06-05T02:23:26.081Z,98312.81
2023-06-05T02:25:53.293Z,98308.59
2023-06-05T02:28:21.657Z,98307.31
2023-06-05T02:30:49.159Z,98304.97
2023-06-05T02:33:16.335Z,98301.09
2023-06-05T02:35:43.465Z,98307.78
2023-06-05T02:38:11.423Z,98308.94
2023-06-05T02:40:38.366Z,98313.81
2023-06-05T02:43:06.841Z,98309.59
2023-06-05T02:45:36.006Z,98309.69
2023-06-05T02:48:03.104Z,98301.34
2023-06-05T02:50:30.278Z,98298.72
2023-06-05T02:52:57.341Z,98292.47
2023-06-05T02:55:24.285Z,98302.97
2023-06-05T02:57:51.204Z,98296.69
2023-06-05T03:00:18.742Z,98299.16
2023-06-05T03:02:49.964Z,98293.28
2023-06-05T03:05:19.483Z,98304.09
2023-06-05T03:07:47.202Z,98307.59
2023-06-05T03:10:14.129Z,98297.81
2023-06-05T03:12:41.046Z,98308.37
2023-06-05T03:15:08.850Z,98300.41
2023-06-05T03:17:35.908Z,98318.63
2023-06-05T03:20:03.301Z,98311.00
2023-06-05T03:22:30.221Z,98312.25
2023-06-05T03:24:57.076Z,98315.19
2023-06-05T03:27:23.952Z,98317.59
2023-06-05T03:29:51.896Z,98318.16
2023-06-05T03:32:18.791Z,98309.94
2023-06-05T03:34:49.848Z,98305.03
2023-06-05T03:37:16.889Z,98316.25
2023-06-05T03:39:43.995Z,98311.00
2023-06-05T03:42:12.358Z,98314.53
2023-06-05T03:44:39.349Z,98308.72
2023-06-05T03:47:07.336Z,98312.47
2023-06-05T03:49:34.296Z,98320.62
2023-06-05T03:52:04.960Z,98316.00
2023-06-05T03:54:35.014Z,98309.78
2023-06-05T03:57:01.944Z,98316.75
2023-06-05T03:59:29.860Z,98320.16
2023-06-05T04:01:58.180Z,98316.59
2023-06-05T04:04:25.176Z,98317.00
2023-06-05T04:06:55.379Z,98319.19
2023-06-05T04:09:22.358Z,98315.72
2023-06-05T04:11:50.683Z,98314.50
2023-06-05T04:14:17.590Z,98318.59
2023-06-05T04:16:44.936Z,98310.50
2023-06-05T04:19:13.473Z,98311.38
2023-06-05T04:21:40.786Z,98314.47
2023-06-05T04:24:10.833Z,98304.81
2023-06-05T04:26:39.231Z,98302.94
2023-06-05T04:29:14.893Z,98307.53
2023-06-05T04:31:43.042Z,98303.97
2023-06-05T04:34:10.051Z,98303.94
2023-06-05T04:36:37.573Z,98306.91
2023-06-05T04:39:05.715Z,98312.34
2023-06-05T04:41:33.876Z,98319.50
2023-06-05T04:44:03.713Z,98320.41
2023-06-05T04:46:30.660Z,98314.00
2023-06-05T04:48:59.028Z,98324.94
2023-06-05T04:51:26.381Z,98331.28
2023-06-05T04:53:54.033Z,98330.94
2023-06-05T04:56:24.502Z,98324.37
2023-06-05T04:58:53.295Z,98332.97
2023-06-05T05:01:21.027Z,98326.63
2023-06-05T05:03:48.443Z,98329.97
2023-06-05T05:06:16.389Z,98326.59
2023-06-05T05:08:46.371Z,98331.69
2023-06-05T05:11:14.141Z,98334.38
2023-06-05T05:13:41.171Z,98336.91
2023-06-05T05:16:12.146Z,98328.25
2023-06-05T05:18:45.328Z,98335.53
2023-06-05T05:21:12.285Z,98326.75
2023-06-05T05:23:39.283Z,98322.00
2023-06-05T05:26:06.424Z,98320.81
2023-06-05T05:28:33.435Z,98326.13
2023-06-05T05:31:01.448Z,98322.47
2023-06-05T05:33:28.340Z,98324.91
2023-06-05T05:35:55.267Z,98323.94
2023-06-05T05:38:22.424Z,98324.91
2023-06-05T05:40:50.822Z,98331.22
2023-06-05T05:43:19.311Z,98331.16
2023-06-05T05:45:46.271Z,98331.37
2023-06-05T05:48:13.197Z,98321.28
2023-06-05T05:50:42.110Z,98325.47
2023-06-05T05:53:09.104Z,98325.94
2023-06-05T05:55:36.032Z,98331.37
2023-06-05T05:58:03.212Z,98331.03
2023-06-05T06:00:30.212Z,98325.38
2023-06-05T06:02:57.421Z,98326.13
2023-06-05T06:05:24.523Z,98334.28
2023-06-05T06:07:51.527Z,98329.66
2023-06-05T06:10:18.822Z,98335.75
2023-06-05T06:12:46.575Z,98339.41
2023-06-05T06:15:13.492Z,98344.41
2023-06-05T06:17:41.269Z,98344.81
2023-06-05T06:20:12.807Z,98341.31
2023-06-05T06:22:40.321Z,98352.38
2023-06-05T06:25:08.772Z,98348.66
2023-06-05T06:27:36.128Z,98342.59
2023-06-05T06:30:04.128Z,98347.25
2023-06-05T06:32:31.089Z,98341.88
2023-06-05T06:34:58.603Z,98343.00
2023-06-05T06:37:25.733Z,98347.97
2023-06-05T06:39:52.637Z,98343.19
2023-06-05T06:42:19.690Z,98345.81
2023-06-05T06:44:46.589Z,98349.63
2023-06-05T06:47:13.526Z,98341.31
2023-06-05T06:49:42.136Z,98348.56
2023-06-05T06:52:09.150Z,98355.00
2023-06-05T06:54:37.393Z,98356.53
2023-06-05T06:57:04.411Z,98348.44
2023-06-05T06:59:31.402Z,98342.59
2023-06-05T07:02:13.309Z,98338.87
2023-06-05T07:04:42.792Z,98345.72
2023-06-05T07:07:13.957Z,98349.38
2023-06-05T07:09:41.862Z,98346.28
2023-06-05T07:12:13.952Z,98346.87
2023-06-05T07:14:41.562Z,98350.94
2023-06-05T07:17:08.999Z,98349.97
2023-06-05T07:19:37.785Z,98353.00
2023-06-05T07:22:05.673Z,98358.91
2023-06-05T07:24:33.309Z,98357.69
2023-06-05T07:27:04.141Z,98355.13
2023-06-05T07:29:31.424Z,98353.53
2023-06-05T07:32:00.244Z,98359.88
2023-06-05T07:34:28.153Z,98366.91
2023-06-05T07:36:56.915Z,98365.06
2023-06-05T07:39:24.386Z,98370.87
2023-06-05T07:41:51.318Z,98356.41
2023-06-05T07:44:20.074Z,98365.62
2023-06-05T07:46:48.244Z,98356.28
2023-06-05T07:49:18.758Z,98355.69
2023-06-05T07:51:48.987Z,98357.13
2023-06-05T07:54:20.610Z,98352.13
2023-06-05T07:56:50.427Z,98350.53
2023-06-05T07:59:17.924Z,98345.75
2023-06-05T08:01:46.641Z,98364.00
2023-06-05T08:04:14.054Z,98357.25
2023-06-05T08:06:41.563Z,98352.31
2023-06-05T08:09:10.613Z,98354.22
2023-06-05T08:11:38.692Z,98353.78
2023-06-05T08:14:09.210Z,98357.22
2023-06-05T08:16:40.433Z,98350.22
2023-06-05T08:19:07.949Z,98346.56
2023-06-05T08:21:35.480Z,98346.34
2023-06-05T08:24:02.510Z,98343.00
2023-06-05T08:26:29.499Z,98353.00
2023-06-05T08:28:56.451Z,98346.16
2023-06-05T08:31:23.463Z,98351.34
2023-06-05T08:33:50.409Z,98345.16
2023-06-05T08:36:17.737Z,98346.69
2023-06-05T08:38:45.362Z,98339.19
2023-06-05T08:41:15.026Z,98344.84
2023-06-05T08:43:45.825Z,98349.97
2023-06-05T08:46:13.764Z,98342.56
2023-06-05T08:48:48.097Z,98344.59
2023-06-05T08:51:16.834Z,98344.00
2023-06-05T08:53:51.143Z,98340.59
2023-06-05T08:56:18.837Z,98353.19
2023-06-05T08:58:46.509Z,98345.34
2023-06-05T09:01:13.539Z,98341.47
2023-06-05T09:03:40.522Z,98342.94
2023-06-05T09:06:07.934Z,98351.91
2023-06-05T09:08:35.876Z,98345.53
2023-06-05T09:11:22.515Z,98342.50
2023-06-05T09:13:50.664Z,98346.34
2023-06-05T09:16:21.673Z,98346.56
2023-06-05T09:19:04.549Z,98348.66
2023-06-05T09:21:36.907Z,98343.69
2023-06-05T09:24:20.115Z,98347.06
2023-06-05T09:26:51.831Z,98350.78
2023-06-05T09:29:44.943Z,98346.16
2023-06-05T09:32:21.553Z,98337.19
2023-06-05T09:35:00.780Z,98336.88
2023-06-05T09:37:36.508Z,98342.25
2023-06-05T09:40:06.519Z,98337.50
2023-06-05T09:42:34.376Z,98334.53
2023-06-05T09:45:02.632Z,98347.03
2023-06-05T09:47:35.650Z,98339.09
2023-06-05T09:50:22.311Z,98336.50
2023-06-05T09:52:49.541Z,98331.84
2023-06-05T09:55:16.580Z,98329.75
2023-06-05T09:57:43.873Z,98322.38
2023-06-05T10:00:13.173Z,98318.97
2023-06-05T10:02:40.389Z,98327.66
2023-06-05T10:05:11.149Z,98322.66
2023-06-05T10:07:40.191Z,98330.34
2023-06-05T10:10:12.515Z,98316.97
2023-06-05T10:12:39.944Z,98314.34
2023-06-05T10:15:08.108Z,98316.03
2023-06-05T10:17:37.962Z,98320.91
2023-06-05T10:20:07.769Z,98316.56
2023-06-05T10:22:37.677Z,98315.13
2023-06-05T10:25:07.363Z,98318.75
2023-06-05T10:27:37.375Z,98304.97
2023-06-05T10:30:36.672Z,98297.91
2023-06-05T10:33:33.457Z,98311.47
2023-06-05T10:36:23.222Z,98298.69
2023-06-05T10:38:50.139Z,98301.75
2023-06-05T10:41:18.794Z,98297.53
2023-06-05T10:43:54.208Z,98296.59
2023-06-05T10:46:38.287Z,98295.25
2023-06-05T10:49:17.309Z,98295.47
2023-06-05T10:51:48.115Z,98298.19
2023-06-05T10:54:25.292Z,98299.38
2023-06-05T10:56:56.830Z,98299.13
2023-06-05T10:59:35.539Z,98304.06
2023-06-05T11:02:17.825Z,98300.78
2023-06-05T11:04:48.135Z,98305.75
2023-06-05T11:07:26.258Z,98302.91
2023-06-05T11:10:11.727Z,98300.53
2023-06-05T11:12:41.536Z,98301.13
2023-06-05T11:15:09.899Z,98295.72
2023-06-05T11:17:43.435Z,98300.91
2023-06-05T11:20:30.660Z,98296.38
2023-06-05T11:23:00.564Z,98300.91
2023-06-05T11:25:29.372Z,98294.97
2023-06-05T11:27:57.929Z,98306.50
2023-06-05T11:33:18.750Z,98289.72
2023-06-05T11:35:47.871Z,98295.97
2023-06-05T11:38:22.057Z,98290.53
2023-06-05T11:40:50.966Z,98291.53
2023-06-05T11:43:18.241Z,98293.50
2023-06-05T11:45:56.035Z,98296.56
2023-06-05T11:48:45.098Z,98289.94
2023-06-05T11:51:12.140Z,98289.78
2023-06-05T11:53:46.180Z,98287.25
2023-06-05T11:56:19.126Z,98292.09
2023-06-05T11:58:46.653Z,98281.34
2023-06-05T12:01:23.773Z,98284.84
2023-06-05T12:04:04.164Z,98290.47
2023-06-05T12:06:31.115Z,98284.66
2023-06-05T12:09:15.570Z,98288.25
2023-06-05T12:11:45.636Z,98285.31
2023-06-05T12:14:30.683Z,98294.19
2023-06-05T12:16:59.809Z,98281.13
2023-06-05T12:19:28.290Z,98281.03
2023-06-05T12:22:08.158Z,98289.84
2023-06-05T12:24:35.262Z,98283.88
2023-06-05T12:27:05.319Z,98286.28
2023-06-05T12:35:05.639Z,98284.06
2023-06-05T12:37:38.770Z,98276.41
2023-06-05T12:40:12.068Z,98281.38
2023-06-05T12:42:42.217Z,98283.50
2023-06-05T12:45:09.586Z,98287.81
2023-06-05T12:47:37.335Z,98280.44
2023-06-05T12:50:08.875Z,98280.72
2023-06-05T12:52:55.914Z,98271.72
2023-06-05T12:55:28.640Z,98282.19
2023-06-05T13:00:29.126Z,98282.31
2023-06-05T13:02:56.153Z,98267.00
2023-06-05T13:05:23.080Z,98262.78
2023-06-05T13:07:52.575Z,98263.00
2023-06-05T13:10:19.534Z,98270.03
2023-06-05T13:12:49.313Z,98265.09
2023-06-05T13:15:16.412Z,98261.34
2023-06-05T13:17:44.770Z,98262.66
2023-06-05T13:20:31.936Z,98256.25
2023-06-05T13:22:58.853Z,98253.25
2023-06-05T13:25:25.740Z,98253.81
2023-06-05T13:27:52.619Z,98247.75
2023-06-05T13:30:21.631Z,98249.84
2023-06-05T13:32:49.536Z,98255.72
2023-06-05T13:35:16.418Z,98248.63
2023-06-05T13:37:43.300Z,98251.91
2023-06-05T13:40:14.113Z,98253.94
2023-06-05T13:42:41.197Z,98244.00
2023-06-05T13:45:09.043Z,98246.69
2023-06-05T13:47:36.167Z,98249.38
2023-06-05T13:50:03.983Z,98242.97
2023-06-05T13:52:30.956Z,98247.81
2023-06-05T13:54:58.636Z,98235.09
2023-06-05T13:57:25.500Z,98232.47
2023-06-05T13:59:54.416Z,98238.16
2023-06-05T14:02:21.275Z,98223.22
2023-06-05T14:04:48.184Z,98224.69
2023-06-05T14:07:15.343Z,98220.22
2023-06-05T14:09:42.773Z,98229.34
2023-06-05T14:12:11.161Z,98227.81
2023-06-05T14:14:38.188Z,98223.44
2023-06-05T14:17:05.171Z,98218.59
2023-06-05T14:19:32.146Z,98227.63
2023-06-05T14:21:59.060Z,98216.63
2023-06-05T14:24:25.976Z,98212.25
2023-06-05T14:26:54.985Z,98210.69
2023-06-05T14:29:21.886Z,98209.91
2023-06-05T14:31:48.946Z,98216.97
2023-06-05T14:34:16.917Z,98213.81
2023-06-05T14:36:51.324Z,98206.44
2023-06-05T14:39:20.003Z,98207.12
2023-06-05T14:41:46.921Z,98215.41
2023-06-05T14:44:22.376Z,98208.13
2023-06-05T14:46:50.837Z,98206.50
2023-06-05T14:49:19.620Z,98198.62
2023-06-05T14:51:46.803Z,98196.88
2023-06-05T14:54:14.576Z,98197.63
2023-06-05T14:56:41.465Z,98192.94
2023-06-05T14:59:18.632Z,98195.28
2023-06-05T15:01:52.607Z,98195.50
2023-06-05T15:04:19.664Z,98196.78
2023-06-05T15:06:47.450Z,98190.78
2023-06-05T15:09:15.688Z,98186.34
2023-06-05T15:11:42.586Z,98183.69
2023-06-05T15:14:09.465Z,98189.53
2023-06-05T15:16:42.063Z,98190.78
2023-06-05T15:19:10.220Z,98180.13
2023-06-05T15:21:37.844Z,98178.59
2023-06-05T15:24:05.145Z,98179.78
2023-06-05T15:26:32.202Z,98175.75
2023-06-05T15:28:59.104Z,98169.25
2023-06-05T15:31:26.124Z,98166.03
2023-06-05T15:33:53.031Z,98168.22
2023-06-05T15:36:20.012Z,98156.25
2023-06-05T15:38:46.957Z,98165.16
2023-06-05T15:41:14.757Z,98165.06
2023-06-05T15:43:42.155Z,98150.47
2023-06-05T15:46:09.930Z,98152.59
2023-06-05T15:48:37.090Z,98146.97
2023-06-05T15:51:05.484Z,98155.84
2023-06-05T15:53:37.416Z,98146.88
2023-06-05T15:56:07.160Z,98148.72
2023-06-05T15:58:34.145Z,98144.94
2023-06-05T16:01:01.091Z,98141.00
2023-06-05T16:03:28.078Z,98143.78
2023-06-05T16:05:55.034Z,98143.91
2023-06-05T16:08:22.908Z,98144.09
2023-06-05T16:10:49.822Z,98135.63
2023-06-05T16:13:17.600Z,98138.47
2023-06-05T16:15:45.221Z,98140.00
2023-06-05T16:18:12.229Z,98141.16
2023-06-05T16:20:39.151Z,98135.88
2023-06-05T16:23:06.202Z,98135.84
2023-06-05T16:25:33.165Z,98129.75
2023-06-05T16:28:00.146Z,98130.72
2023-06-05T16:30:27.071Z,98134.31
2023-06-05T16:32:54.068Z,98128.69
2023-06-05T16:35:21.364Z,98128.94
2023-06-05T16:37:48.290Z,98123.03
2023-06-05T16:40:15.269Z,98134.88
2023-06-05T16:42:42.470Z,98139.16
2023-06-05T16:45:09.629Z,98127.97
2023-06-05T16:47:36.944Z,98133.00
2023-06-05T16:50:03.981Z,98124.69
2023-06-05T16:52:30.939Z,98126.81
2023-06-05T16:54:57.819Z,98135.72
2023-06-05T16:57:24.788Z,98124.25
2023-06-05T16:59:51.916Z,98135.34
2023-06-05T17:02:19.010Z,98134.53
2023-06-05T17:04:46.441Z,98131.41
2023-06-05T17:07:13.632Z,98129.75
2023-06-05T17:09:42.309Z,98122.56
2023-06-05T17:12:09.413Z,98125.31
2023-06-05T17:14:36.386Z,98137.97
2023-06-05T17:17:03.355Z,98133.84
2023-06-05T17:19:30.264Z,98128.66
2023-06-05T17:21:57.149Z,98127.53
2023-06-05T17:24:25.778Z,98132.09
2023-06-05T17:26:52.743Z,98130.12
2023-06-05T17:29:19.841Z,98133.03
2023-06-05T17:31:52.762Z,98127.06
2023-06-05T17:34:20.519Z,98120.25
2023-06-05T17:36:47.444Z,98121.09
2023-06-05T17:39:14.484Z,98120.97
2023-06-05T17:41:41.424Z,98114.22
2023-06-05T17:44:08.321Z,98115.34
2023-06-05T17:46:35.215Z,98111.84
2023-06-05T17:49:02.428Z,98109.94
2023-06-05T17:51:29.560Z,98100.56
2023-06-05T17:53:56.757Z,98112.13
2023-06-05T17:56:23.901Z,98105.16
2023-06-05T17:58:50.882Z,98108.09
2023-06-05T18:01:18.641Z,98107.75
2023-06-05T18:03:46.564Z,98104.28
2023-06-05T18:06:13.654Z,98099.91
2023-06-05T18:08:40.848Z,98101.13
2023-06-05T18:11:08.053Z,98110.56
2023-06-05T18:13:35.191Z,98111.66
2023-06-05T18:16:03.990Z,98112.41
2023-06-05T18:18:31.102Z,98112.78
2023-06-05T18:20:58.021Z,98115.12
2023-06-05T18:23:25.007Z,98108.13
2023-06-05T18:25:51.946Z,98112.34
2023-06-05T18:28:18.836Z,98112.03
2023-06-05T18:30:45.896Z,98114.38
2023-06-05T18:33:13.324Z,98109.91
2023-06-05T18:35:41.937Z,98111.22
2023-06-05T18:38:10.480Z,98109.41
2023-06-05T18:40:37.833Z,98113.03
2023-06-05T18:43:04.771Z,98111.72
2023-06-05T18:45:33.760Z,98117.69
2023-06-05T18:48:00.793Z,98124.97
2023-06-05T18:50:28.571Z,98121.78
2023-06-05T18:52:55.718Z,98122.66
2023-06-05T18:55:22.698Z,98122.62
2023-06-05T18:57:49.571Z,98123.12
2023-06-05T19:00:16.911Z,98122.25
2023-06-05T19:02:43.826Z,98119.19
2023-06-05T19:05:10.932Z,98115.06
2023-06-05T19:07:37.921Z,98119.84
2023-06-05T19:10:07.110Z,98131.50
2023-06-05T19:12:38.378Z,98131.38
2023-06-05T19:15:05.654Z,98131.91
2023-06-05T19:17:32.598Z,98129.03
2023-06-05T19:19:59.522Z,98130.94
2023-06-05T19:22:26.495Z,98130.75
2023-06-05T19:24:53.372Z,98130.81
2023-06-05T19:27:22.614Z,98133.59
2023-06-05T19:29:50.520Z,98143.00
2023-06-05T19:32:17.677Z,98141.81
2023-06-05T19:34:44.637Z,98140.66
2023-06-05T19:37:11.697Z,98143.47
2023-06-05T19:39:38.632Z,98135.84
2023-06-05T19:42:07.022Z,98136.78
2023-06-05T19:44:35.172Z,98129.31
2023-06-05T19:47:02.061Z,98125.97
2023-06-05T19:49:28.909Z,98130.75
2023-06-05T19:51:55.965Z,98133.50
2023-06-05T19:54:22.846Z,98143.09
2023-06-05T19:56:50.916Z,98130.62
2023-06-05T19:59:17.814Z,98121.09
2023-06-05T20:01:44.930Z,98107.00
2023-06-05T20:04:12.038Z,98095.19
2023-06-05T20:06:38.960Z,98096.06
2023-06-05T20:09:05.906Z,98095.37
2023-06-05T20:11:33.099Z,98093.31
2023-06-05T20:13:59.968Z,98090.94
2023-06-05T20:16:26.891Z,98091.78
2023-06-05T20:18:53.841Z,98089.34
2023-06-05T20:21:20.848Z,98093.06
2023-06-05T20:23:51.703Z,98092.38
2023-06-05T20:26:19.358Z,98093.25
2023-06-05T20:28:46.404Z,98095.13
2023-06-05T20:31:13.542Z,98091.50
2023-06-05T20:33:40.655Z,98102.13
2023-06-05T20:36:11.219Z,98092.44
2023-06-05T20:38:39.180Z,98096.28
2023-06-05T20:41:09.345Z,98096.28
2023-06-05T20:43:36.949Z,98094.81
2023-06-05T20:46:07.896Z,98100.47
2023-06-05T20:48:37.096Z,98097.44
2023-06-05T20:51:09.172Z,98095.94
2023-06-05T20:53:37.715Z,98093.28
2023-06-05T20:56:05.638Z,98095.19
2023-06-05T20:58:32.900Z,98101.25
2023-06-05T21:00:59.855Z,98114.62
2023-06-05T21:03:26.844Z,98119.50
2023-06-05T21:05:53.867Z,98096.41
2023-06-05T21:08:20.825Z,98133.28
2023-06-05T21:10:47.743Z,98128.88
2023-06-05T21:13:14.610Z,98118.63
2023-06-05T21:15:41.490Z,98134.53
2023-06-05T21:18:08.481Z,98132.69
2023-06-05T21:20:35.681Z,98137.31
2023-06-05T21:23:02.564Z,98143.72
2023-06-05T21:25:29.517Z,98136.00
2023-06-05T21:27:56.412Z,98139.19
2023-06-05T21:30:23.258Z,98135.44
2023-06-05T21:32:50.801Z,98135.25
2023-06-05T21:35:17.796Z,98136.91
2023-06-05T21:37:44.692Z,98129.78
2023-06-05T21:40:11.951Z,98128.41
2023-06-05T21:42:38.809Z,98135.19
2023-06-05T21:45:06.544Z,98132.59
2023-06-05T21:47:33.488Z,98123.06
2023-06-05T21:50:00.517Z,98118.50
2023-06-05T21:52:27.602Z,98116.28
2023-06-05T21:54:56.218Z,98112.91
2023-06-05T21:57:23.124Z,98115.03
2023-06-05T21:59:50.032Z,98117.53
2023-06-05T22:02:17.054Z,98108.09
2023-06-05T22:04:45.196Z,98117.25
2023-06-05T22:07:12.965Z,98114.00
2023-06-05T22:09:39.854Z,98111.44
2023-06-05T22:12:07.777Z,98106.28
2023-06-05T22:14:34.671Z,98099.78
2023-06-05T22:17:01.583Z,98101.72
2023-06-05T22:19:29.056Z,98100.16
2023-06-05T22:21:57.395Z,98098.13
2023-06-05T22:24:24.834Z,98094.19
2023-06-05T22:26:51.748Z,98095.25
2023-06-05T22:29:18.616Z,98095.81
2023-06-05T22:31:45.592Z,98103.53
2023-06-05T22:34:12.557Z,98117.91
2023-06-05T22:36:40.579Z,98128.28
2023-06-05T22:39:07.497Z,98123.78
2023-06-05T22:41:34.666Z,98128.09
2023-06-05T22:44:01.521Z,98129.56
2023-06-05T22:46:28.419Z,98123.34
2023-06-05T22:48:55.738Z,98111.84
2023-06-05T22:51:25.451Z,98099.56
2023-06-05T22:53:52.876Z,98096.78
2023-06-05T22:56:19.873Z,98096.47
2023-06-05T22:58:47.022Z,98082.94
2023-06-05T23:01:17.743Z,98086.38
2023-06-05T23:03:45.377Z,98094.03
2023-06-05T23:06:12.461Z,98086.38
2023-06-05T23:08:39.388Z,98084.03
2023-06-05T23:11:06.246Z,98074.22
2023-06-05T23:13:33.118Z,98073.03
2023-06-05T23:16:00.472Z,98075.63
2023-06-05T23:18:27.386Z,98071.34
2023-06-05T23:20:54.286Z,98064.87
2023-06-05T23:23:21.357Z,98063.28
2023-06-05T23:25:49.386Z,98060.81
2023-06-05T23:28:17.091Z,98060.44
2023-06-05T23:30:44.171Z,98047.69
2023-06-05T23:33:13.647Z,98047.25
2023-06-05T23:35:41.506Z,98056.66
2023-06-05T23:38:08.538Z,98050.94
2023-06-05T23:40:35.538Z,98052.78
2023-06-05T23:43:03.099Z,98060.56
2023-06-05T23:45:31.213Z,98061.47
2023-06-05T23:47:58.937Z,98068.59
2023-06-05T23:50:26.300Z,98068.59
2023-06-05T23:52:55.190Z,98079.22
2023-06-05T23:55:24.742Z,98089.16
2023-06-05T23:57:52.874Z,98083.94
